createdAt,value
2018-12-14T00:00:44.040Z,5.70
2018-12-14T00:01:44.203Z,6.20
2018-12-14T00:02:44.359Z,5.70
2018-12-14T00:03:44.527Z,5.40
2018-12-14T00:04:44.680Z,5.60
2018-12-14T00:05:44.847Z,5.30
2018-12-14T00:06:45.020Z,6.00
2018-12-14T00:07:45.184Z,6.30
2018-12-14T00:08:45.337Z,6.30
2018-12-14T00:09:45.510Z,5.80
2018-12-14T00:10:45.673Z,5.50
2018-12-14T00:11:45.895Z,5.40
2018-12-14T00:12:45.996Z,5.40
2018-12-14T00:13:46.173Z,5.80
2018-12-14T00:14:46.322Z,5.40
2018-12-14T00:15:46.472Z,5.80
2018-12-14T00:16:46.629Z,6.10
2018-12-14T00:17:46.828Z,5.80
2018-12-14T00:18:46.889Z,5.70
2018-12-14T00:19:47.042Z,6.00
2018-12-14T00:20:47.213Z,6.20
2018-12-14T00:21:47.374Z,5.90
2018-12-14T00:22:49.395Z,6.10
2018-12-14T00:23:47.713Z,6.50
2018-12-14T00:24:47.874Z,5.90
2018-12-14T00:25:48.055Z,6.30
2018-12-14T00:26:48.203Z,5.80
2018-12-14T00:27:48.361Z,6.10
2018-12-14T00:28:48.519Z,5.80
2018-12-14T00:29:48.693Z,6.40
2018-12-14T00:30:48.787Z,6.60
2018-12-14T00:31:48.946Z,6.20
2018-12-14T00:32:49.128Z,5.50
2018-12-14T00:33:49.274Z,6.00
2018-12-14T00:34:49.444Z,5.80
2018-12-14T00:35:49.601Z,6.30
2018-12-14T00:36:49.763Z,6.20
2018-12-14T00:37:49.962Z,5.60
2018-12-14T00:38:50.123Z,6.10
2018-12-14T00:39:50.295Z,6.60
2018-12-14T00:40:50.483Z,5.70
2018-12-14T00:41:52.024Z,5.60
2018-12-14T00:42:50.935Z,6.30
2018-12-14T00:43:50.992Z,6.30
2018-12-14T00:44:51.144Z,6.20
2018-12-14T00:45:51.322Z,6.80
2018-12-14T00:46:51.503Z,6.20
2018-12-14T00:47:51.685Z,6.40
2018-12-14T00:48:51.826Z,6.60
2018-12-14T00:49:51.999Z,6.50
2018-12-14T00:50:52.153Z,6.20
2018-12-14T00:51:52.318Z,6.20
2018-12-14T00:52:52.509Z,6.50
2018-12-14T00:53:52.670Z,7.10
2018-12-14T00:54:52.829Z,6.10
2018-12-14T00:55:52.991Z,6.90
2018-12-14T00:56:53.187Z,6.70
2018-12-14T00:57:53.339Z,6.90
2018-12-14T00:58:53.497Z,7.10
2018-12-14T00:59:53.646Z,6.70
2018-12-14T01:00:53.820Z,6.90
2018-12-14T01:01:53.983Z,6.90
2018-12-14T01:02:54.143Z,7.00
2018-12-14T01:03:54.306Z,7.50
2018-12-14T01:04:54.482Z,7.10
2018-12-14T01:05:54.648Z,7.00
2018-12-14T01:06:54.806Z,7.40
2018-12-14T01:07:54.973Z,6.90
2018-12-14T01:08:55.142Z,7.30
2018-12-14T01:09:55.315Z,7.00
2018-12-14T01:10:55.475Z,7.20
2018-12-14T01:11:58.322Z,7.00
2018-12-14T01:12:55.802Z,7.30
2018-12-14T01:13:55.968Z,7.30
2018-12-14T01:14:56.158Z,7.10
2018-12-14T01:15:56.285Z,7.10
2018-12-14T01:16:56.453Z,7.40
2018-12-14T01:17:56.621Z,7.40
2018-12-14T01:18:56.798Z,7.20
2018-12-14T01:19:56.938Z,7.20
2018-12-14T01:20:57.095Z,7.50
2018-12-14T01:21:57.260Z,7.30
2018-12-14T01:22:57.442Z,7.70
2018-12-14T01:23:57.586Z,7.90
2018-12-14T01:24:57.737Z,7.30
2018-12-14T01:25:57.897Z,7.70
2018-12-14T01:26:58.061Z,7.90
2018-12-14T01:27:58.227Z,7.60
2018-12-14T01:28:58.383Z,8.00
2018-12-14T01:29:58.565Z,7.50
2018-12-14T01:30:58.735Z,8.00
2018-12-14T01:31:58.906Z,8.10
2018-12-14T01:32:59.079Z,8.60
2018-12-14T01:33:59.241Z,8.50
2018-12-14T01:34:59.420Z,8.30
2018-12-14T01:35:59.585Z,7.80
2018-12-14T01:36:59.744Z,8.50
2018-12-14T01:37:59.915Z,8.00
2018-12-14T01:39:00.073Z,8.00
2018-12-14T01:40:00.230Z,8.70
2018-12-14T01:41:00.402Z,9.10
2018-12-14T01:42:04.849Z,9.10
2018-12-14T01:43:00.715Z,8.70
2018-12-14T01:44:00.880Z,8.90
2018-12-14T01:45:01.045Z,9.50
2018-12-14T01:46:01.202Z,8.50
2018-12-14T01:47:01.488Z,9.00
2018-12-14T01:48:01.577Z,9.40
2018-12-14T01:49:01.737Z,9.30
2018-12-14T01:50:01.917Z,8.90
2018-12-14T01:51:02.086Z,8.80
2018-12-14T01:52:02.246Z,9.20
2018-12-14T01:53:02.412Z,8.90
2018-12-14T01:54:02.565Z,9.70
2018-12-14T01:55:02.725Z,8.40
2018-12-14T01:56:02.895Z,9.20
2018-12-14T01:57:03.068Z,9.30
2018-12-14T01:58:03.238Z,9.80
2018-12-14T01:59:03.487Z,9.10
2018-12-14T02:00:03.539Z,9.60
2018-12-14T02:01:03.707Z,9.30
2018-12-14T02:02:03.870Z,9.10
2018-12-14T02:03:04.027Z,9.30
2018-12-14T02:04:04.200Z,10.10
2018-12-14T02:05:04.371Z,9.20
2018-12-14T02:06:04.530Z,9.60
2018-12-14T02:07:04.708Z,9.00
2018-12-14T02:08:04.887Z,9.30
2018-12-14T02:09:05.059Z,10.20
2018-12-14T02:10:05.218Z,9.90
2018-12-14T02:11:05.385Z,9.60
2018-12-14T02:12:11.098Z,10.60
2018-12-14T02:13:05.708Z,10.00
2018-12-14T02:14:05.887Z,9.60
2018-12-14T02:15:06.060Z,10.00
2018-12-14T02:16:06.220Z,9.60
2018-12-14T02:17:06.383Z,9.10
2018-12-14T02:18:06.555Z,10.00
2018-12-14T02:19:06.715Z,9.50
2018-12-14T02:20:06.875Z,10.60
2018-12-14T02:21:07.042Z,10.40
2018-12-14T02:22:07.192Z,10.20
2018-12-14T02:23:07.364Z,9.60
2018-12-14T02:24:07.534Z,9.40
2018-12-14T02:25:07.717Z,9.20
2018-12-14T02:26:07.867Z,10.00
2018-12-14T02:27:09.949Z,10.20
2018-12-14T02:28:08.141Z,9.30
2018-12-14T02:29:08.318Z,10.00
2018-12-14T02:30:08.468Z,10.20
2018-12-14T02:31:08.628Z,10.20
2018-12-14T02:32:08.813Z,9.50
2018-12-14T02:33:08.973Z,10.50
2018-12-14T02:34:09.162Z,10.10
2018-12-14T02:35:09.330Z,10.50
2018-12-14T02:36:09.501Z,9.60
2018-12-14T02:37:09.649Z,9.40
2018-12-14T02:38:09.816Z,9.10
2018-12-14T02:39:09.992Z,9.70
2018-12-14T02:40:10.153Z,10.20
2018-12-14T02:41:10.319Z,9.50
2018-12-14T02:42:10.485Z,9.20
2018-12-14T02:43:10.657Z,9.30
2018-12-14T02:44:10.809Z,9.30
2018-12-14T02:45:10.976Z,10.10
2018-12-14T02:46:11.139Z,9.40
2018-12-14T02:47:11.311Z,9.80
2018-12-14T02:48:11.466Z,10.10
2018-12-14T02:49:11.639Z,9.50
2018-12-14T02:50:11.795Z,10.40
2018-12-14T02:51:11.949Z,11.00
2018-12-14T02:52:12.133Z,10.20
2018-12-14T02:53:12.303Z,10.50
2018-12-14T02:54:12.470Z,10.30
2018-12-14T02:55:12.620Z,11.20
2018-12-14T02:56:12.786Z,10.20
2018-12-14T02:57:12.950Z,10.50
2018-12-14T02:58:13.118Z,10.70
2018-12-14T02:59:13.280Z,11.20
2018-12-14T03:00:13.434Z,10.10
2018-12-14T03:01:13.606Z,10.80
2018-12-14T03:02:13.776Z,10.70
2018-12-14T03:03:13.950Z,11.40
2018-12-14T03:04:14.112Z,11.30
2018-12-14T03:05:14.269Z,11.00
2018-12-14T03:06:14.437Z,11.70
2018-12-14T03:07:14.604Z,10.80
2018-12-14T03:08:14.765Z,11.10
2018-12-14T03:09:14.929Z,11.30
2018-12-14T03:10:15.097Z,11.00
2018-12-14T03:11:15.258Z,11.80
2018-12-14T03:12:15.428Z,11.80
2018-12-14T03:13:15.621Z,11.90
2018-12-14T03:14:15.794Z,11.90
2018-12-14T03:15:15.947Z,12.10
2018-12-14T03:16:16.108Z,12.10
2018-12-14T03:17:16.281Z,12.20
2018-12-14T03:18:16.434Z,12.30
2018-12-14T03:19:16.591Z,12.20
2018-12-14T03:20:16.757Z,11.70
2018-12-14T03:21:16.914Z,11.60
2018-12-14T03:22:17.073Z,12.50
2018-12-14T03:23:17.232Z,12.10
2018-12-14T03:24:17.411Z,12.80
2018-12-14T03:25:17.589Z,12.20
2018-12-14T03:26:17.748Z,12.20
2018-12-14T03:27:17.906Z,11.20
2018-12-14T03:28:18.072Z,11.90
2018-12-14T03:29:18.229Z,13.10
2018-12-14T03:30:18.403Z,12.60
2018-12-14T03:31:18.562Z,12.30
2018-12-14T03:32:18.732Z,12.50
2018-12-14T03:33:19.028Z,12.30
2018-12-14T03:34:19.069Z,12.00
2018-12-14T03:35:19.233Z,11.90
2018-12-14T03:36:19.401Z,11.50
2018-12-14T03:37:19.548Z,11.50
2018-12-14T03:38:19.710Z,11.00
2018-12-14T03:39:19.875Z,12.10
2018-12-14T03:40:20.042Z,11.10
2018-12-14T03:41:20.221Z,11.30
2018-12-14T03:42:20.357Z,11.40
2018-12-14T03:43:20.573Z,11.50
2018-12-14T03:44:20.617Z,10.60
2018-12-14T03:45:20.791Z,10.90
2018-12-14T03:46:20.954Z,11.10
2018-12-14T03:47:21.121Z,11.00
2018-12-14T03:48:21.278Z,11.10
2018-12-14T03:49:21.475Z,11.00
2018-12-14T03:50:21.575Z,10.90
2018-12-14T03:51:21.755Z,10.40
2018-12-14T03:52:21.941Z,9.80
2018-12-14T03:53:22.106Z,10.20
2018-12-14T03:54:22.260Z,9.30
2018-12-14T03:55:22.424Z,10.00
2018-12-14T03:56:22.598Z,10.10
2018-12-14T03:57:22.771Z,9.90
2018-12-14T03:58:22.919Z,10.00
2018-12-14T03:59:23.113Z,10.00
2018-12-14T04:00:23.284Z,10.50
2018-12-14T04:01:23.464Z,10.40
2018-12-14T04:02:23.633Z,10.80
2018-12-14T04:03:23.826Z,10.10
2018-12-14T04:04:23.984Z,10.40
2018-12-14T04:05:24.145Z,10.90
2018-12-14T04:06:24.301Z,10.40
2018-12-14T04:07:24.466Z,10.00
2018-12-14T04:08:24.634Z,10.00
2018-12-14T04:09:24.791Z,10.00
2018-12-14T04:10:24.959Z,10.30
2018-12-14T04:11:25.131Z,10.10
2018-12-14T04:12:25.293Z,10.10
2018-12-14T04:13:25.461Z,10.40
2018-12-14T04:14:25.617Z,10.30
2018-12-14T04:15:25.778Z,9.80
2018-12-14T04:16:25.945Z,9.70
2018-12-14T04:17:26.105Z,10.00
2018-12-14T04:18:26.273Z,10.40
2018-12-14T04:19:26.427Z,9.90
2018-12-14T04:20:26.594Z,10.00
2018-12-14T04:21:26.767Z,9.50
2018-12-14T04:22:26.934Z,10.10
2018-12-14T04:23:27.101Z,10.60
2018-12-14T04:24:27.324Z,10.60
2018-12-14T04:25:27.444Z,9.80
2018-12-14T04:26:27.628Z,10.00
2018-12-14T04:27:27.784Z,10.00
2018-12-14T04:28:27.947Z,10.30
2018-12-14T04:29:28.119Z,10.40
2018-12-14T04:30:28.278Z,10.40
2018-12-14T04:31:28.438Z,10.00
2018-12-14T04:32:28.603Z,10.20
2018-12-14T04:33:28.774Z,9.80
2018-12-14T04:34:28.939Z,10.10
2018-12-14T04:35:29.109Z,10.20
2018-12-14T04:36:29.264Z,10.00
2018-12-14T04:37:29.427Z,9.70
2018-12-14T04:38:29.625Z,10.00
2018-12-14T04:39:31.251Z,10.20
2018-12-14T04:40:29.962Z,10.10
2018-12-14T04:41:30.120Z,8.90
2018-12-14T04:42:30.274Z,8.90
2018-12-14T04:43:30.440Z,8.00
2018-12-14T04:44:35.282Z,8.50
2018-12-14T04:45:30.780Z,8.80
2018-12-14T04:46:30.944Z,8.70
2018-12-14T04:47:31.101Z,8.40
2018-12-14T04:48:31.291Z,8.00
2018-12-14T04:49:31.466Z,8.40
2018-12-14T04:50:31.620Z,8.00
2018-12-14T04:51:31.793Z,8.60
2018-12-14T04:52:31.957Z,9.20
2018-12-14T04:53:32.135Z,8.20
2018-12-14T04:54:32.289Z,7.80
2018-12-14T04:55:32.484Z,8.60
2018-12-14T04:56:32.660Z,7.90
2018-12-14T04:57:33.051Z,8.40
2018-12-14T04:58:32.949Z,8.10
2018-12-14T04:59:33.105Z,8.00
2018-12-14T05:00:33.274Z,8.50
2018-12-14T05:01:33.445Z,8.70
2018-12-14T05:02:33.597Z,8.70
2018-12-14T05:03:33.782Z,7.50
2018-12-14T05:04:33.949Z,8.70
2018-12-14T05:05:34.105Z,8.30
2018-12-14T05:06:34.277Z,8.20
2018-12-14T05:07:34.434Z,8.30
2018-12-14T05:08:34.596Z,8.80
2018-12-14T05:09:34.753Z,9.00
2018-12-14T05:10:34.929Z,8.40
2018-12-14T05:11:35.086Z,8.00
2018-12-14T05:12:35.253Z,7.60
2018-12-14T05:13:35.419Z,7.00
2018-12-14T05:14:35.582Z,8.00
2018-12-14T05:15:35.751Z,8.30
2018-12-14T05:16:39.795Z,8.00
2018-12-14T05:17:38.407Z,8.10
2018-12-14T05:18:39.091Z,8.20
2018-12-14T05:19:37.381Z,7.80
2018-12-14T05:20:36.428Z,8.50
2018-12-14T05:21:36.594Z,8.90
2018-12-14T05:22:36.752Z,9.00
2018-12-14T05:23:36.971Z,8.80
2018-12-14T05:24:37.134Z,8.60
2018-12-14T05:25:37.304Z,8.60
2018-12-14T05:26:37.470Z,8.60
2018-12-14T05:27:37.627Z,8.60
2018-12-14T05:28:37.786Z,8.80
2018-12-14T05:29:37.955Z,9.00
2018-12-14T05:30:38.119Z,9.10
2018-12-14T05:31:38.280Z,9.60
2018-12-14T05:32:38.444Z,8.50
2018-12-14T05:33:38.616Z,8.70
2018-12-14T05:34:38.783Z,8.90
2018-12-14T05:35:38.945Z,8.90
2018-12-14T05:36:39.110Z,9.00
2018-12-14T05:37:39.268Z,9.00
2018-12-14T05:38:39.433Z,8.80
2018-12-14T05:39:39.595Z,8.70
2018-12-14T05:40:39.760Z,8.90
2018-12-14T05:41:39.922Z,9.00
2018-12-14T05:42:40.085Z,9.90
2018-12-14T05:43:40.247Z,9.00
2018-12-14T05:44:40.416Z,9.60
2018-12-14T05:45:40.569Z,9.70
2018-12-14T05:46:40.731Z,10.00
2018-12-14T05:47:40.896Z,10.30
2018-12-14T05:48:41.061Z,9.90
2018-12-14T05:49:41.460Z,10.50
2018-12-14T05:50:41.695Z,9.30
2018-12-14T05:51:41.921Z,10.60
2018-12-14T05:52:41.741Z,10.70
2018-12-14T05:53:41.897Z,10.70
2018-12-14T05:54:42.063Z,9.70
2018-12-14T05:55:42.223Z,10.10
2018-12-14T05:56:42.385Z,9.80
2018-12-14T05:57:42.546Z,10.50
2018-12-14T05:58:42.717Z,10.20
2018-12-14T05:59:42.875Z,9.60
2018-12-14T06:00:43.058Z,10.40
2018-12-14T06:01:43.229Z,10.40
2018-12-14T06:02:43.401Z,10.10
2018-12-14T06:03:43.578Z,11.40
2018-12-14T06:04:43.745Z,10.20
2018-12-14T06:05:43.913Z,10.60
2018-12-14T06:06:44.077Z,10.70
2018-12-14T06:07:44.242Z,10.20
2018-12-14T06:08:44.418Z,10.50
2018-12-14T06:09:44.598Z,10.20
2018-12-14T06:10:44.762Z,10.10
2018-12-14T06:11:44.927Z,10.60
2018-12-14T06:12:45.090Z,10.40
2018-12-14T06:13:45.247Z,10.50
2018-12-14T06:14:45.415Z,10.90
2018-12-14T06:15:45.577Z,11.40
2018-12-14T06:16:45.737Z,10.80
2018-12-14T06:17:46.443Z,10.70
2018-12-14T06:18:46.020Z,10.70
2018-12-14T06:19:46.213Z,11.00
2018-12-14T06:20:46.449Z,11.10
2018-12-14T06:21:46.593Z,11.30
2018-12-14T06:22:46.758Z,11.00
2018-12-14T06:23:46.939Z,11.90
2018-12-14T06:24:47.089Z,10.50
2018-12-14T06:25:47.261Z,10.70
2018-12-14T06:26:48.146Z,11.10
2018-12-14T06:27:48.723Z,10.70
2018-12-14T06:28:48.088Z,11.70
2018-12-14T06:29:48.041Z,10.90
2018-12-14T06:30:48.129Z,11.50
2018-12-14T06:31:48.341Z,11.30
2018-12-14T06:32:48.514Z,11.70
2018-12-14T06:33:48.972Z,11.30
2018-12-14T06:34:49.019Z,11.50
2018-12-14T06:35:49.155Z,11.20
2018-12-14T06:36:49.354Z,10.50
2018-12-14T06:37:49.483Z,11.40
2018-12-14T06:38:49.612Z,12.50
2018-12-14T06:39:49.777Z,10.80
2018-12-14T06:40:49.995Z,11.70
2018-12-14T06:41:49.995Z,11.50
2018-12-14T06:42:50.100Z,12.10
2018-12-14T06:43:50.467Z,11.60
2018-12-14T06:44:50.499Z,11.40
2018-12-14T06:45:50.701Z,11.70
2018-12-14T06:46:50.873Z,11.00
2018-12-14T06:47:51.088Z,11.30
2018-12-14T06:48:51.371Z,11.40
2018-12-14T06:49:51.514Z,10.80
2018-12-14T06:50:51.595Z,11.30
2018-12-14T06:51:51.810Z,11.70
2018-12-14T06:52:51.884Z,11.10
2018-12-14T06:53:53.553Z,11.10
2018-12-14T06:54:51.986Z,11.50
2018-12-14T06:55:52.158Z,11.50
2018-12-14T06:56:52.321Z,10.80
2018-12-14T06:57:52.508Z,11.50
2018-12-14T06:58:52.651Z,10.50
2018-12-14T06:59:52.813Z,11.00
2018-12-14T07:00:52.976Z,10.90
2018-12-14T07:01:53.153Z,11.30
2018-12-14T07:02:53.316Z,11.20
2018-12-14T07:03:53.477Z,11.00
2018-12-14T07:04:53.646Z,11.20
2018-12-14T07:05:53.803Z,11.90
2018-12-14T07:06:53.990Z,11.10
2018-12-14T07:07:54.232Z,10.70
2018-12-14T07:08:54.231Z,10.70
2018-12-14T07:09:54.390Z,10.90
2018-12-14T07:10:54.565Z,10.30
2018-12-14T07:11:54.775Z,10.50
2018-12-14T07:12:54.967Z,10.90
2018-12-14T07:13:56.216Z,10.60
2018-12-14T07:14:55.421Z,10.80
2018-12-14T07:15:55.595Z,10.60
2018-12-14T07:16:55.724Z,10.80
2018-12-14T07:18:00.430Z,10.80
2018-12-14T07:18:57.294Z,10.50
2018-12-14T07:19:56.159Z,10.50
2018-12-14T07:20:56.203Z,10.10
2018-12-14T07:21:57.201Z,10.40
2018-12-14T07:22:56.517Z,10.20
2018-12-14T07:23:56.721Z,10.60
2018-12-14T07:24:57.190Z,10.90
2018-12-14T07:25:57.011Z,10.20
2018-12-14T07:26:57.172Z,10.90
2018-12-14T07:27:57.338Z,11.10
2018-12-14T07:28:57.775Z,11.70
2018-12-14T07:29:57.719Z,11.00
2018-12-14T07:30:57.889Z,10.80
2018-12-14T07:31:58.091Z,11.20
2018-12-14T07:32:58.256Z,11.30
2018-12-14T07:33:58.394Z,10.40
2018-12-14T07:34:58.559Z,11.20
2018-12-14T07:35:58.727Z,11.40
2018-12-14T07:36:58.894Z,10.70
2018-12-14T07:37:59.072Z,10.50
2018-12-14T07:38:59.232Z,10.60
2018-12-14T07:39:59.396Z,10.80
2018-12-14T07:40:59.568Z,11.40
2018-12-14T07:41:59.729Z,11.80
2018-12-14T07:42:59.905Z,11.70
2018-12-14T07:44:00.065Z,11.30
2018-12-14T07:45:00.257Z,11.60
2018-12-14T07:46:00.385Z,10.70
2018-12-14T07:47:00.543Z,11.10
2018-12-14T07:48:00.851Z,11.00
2018-12-14T07:49:00.863Z,11.60
2018-12-14T07:50:01.030Z,11.10
2018-12-14T07:51:01.195Z,12.00
2018-12-14T07:52:01.397Z,11.40
2018-12-14T07:53:01.554Z,11.90
2018-12-14T07:54:01.721Z,11.70
2018-12-14T07:55:01.915Z,11.60
2018-12-14T07:56:04.462Z,11.80
2018-12-14T07:57:02.262Z,11.80
2018-12-14T07:58:02.438Z,12.20
2018-12-14T07:59:02.631Z,12.40
2018-12-14T08:00:02.816Z,12.30
2018-12-14T08:01:02.961Z,12.20
2018-12-14T08:02:03.117Z,11.90
2018-12-14T08:03:03.300Z,12.00
2018-12-14T08:04:03.469Z,12.00
2018-12-14T08:05:03.842Z,11.50
2018-12-14T08:06:03.795Z,11.80
2018-12-14T08:07:03.962Z,11.70
2018-12-14T08:08:04.130Z,12.10
2018-12-14T08:09:04.289Z,11.90
2018-12-14T08:10:04.592Z,12.30
2018-12-14T08:11:06.242Z,12.20
2018-12-14T08:12:07.121Z,11.50
2018-12-14T08:13:05.789Z,11.90
2018-12-14T08:14:06.726Z,12.10
2018-12-14T08:15:11.352Z,11.80
2018-12-14T08:16:06.979Z,11.80
2018-12-14T08:17:07.498Z,11.70
2018-12-14T08:18:07.389Z,11.60
2018-12-14T08:19:06.430Z,11.80
2018-12-14T08:20:08.032Z,12.30
2018-12-14T08:21:06.974Z,12.30
2018-12-14T08:22:07.115Z,12.60
2018-12-14T08:23:07.349Z,11.10
2018-12-14T08:24:07.676Z,11.70
2018-12-14T08:25:06.802Z,10.90
2018-12-14T08:26:08.245Z,12.00
2018-12-14T08:27:09.512Z,11.40
2018-12-14T08:28:07.922Z,12.30
2018-12-14T08:29:08.573Z,12.30
2018-12-14T08:30:08.419Z,12.50
2018-12-14T08:31:09.992Z,12.90
2018-12-14T08:32:10.136Z,12.80
2018-12-14T08:33:09.693Z,12.70
2018-12-14T08:34:08.662Z,12.30
2018-12-14T08:35:08.426Z,12.20
2018-12-14T08:36:08.588Z,12.90
2018-12-14T08:37:09.412Z,12.30
2018-12-14T08:38:08.931Z,11.70
2018-12-14T08:39:09.119Z,11.70
2018-12-14T08:40:09.293Z,11.10
2018-12-14T08:41:10.287Z,11.30
2018-12-14T08:42:09.619Z,11.60
2018-12-14T08:43:09.807Z,10.70
2018-12-14T08:44:09.966Z,11.40
2018-12-14T08:45:10.111Z,11.40
2018-12-14T08:46:10.318Z,11.10
2018-12-14T08:47:11.522Z,11.00
2018-12-14T08:48:11.347Z,11.70
2018-12-14T08:49:11.250Z,10.90
2018-12-14T08:50:11.546Z,11.20
2018-12-14T08:51:12.239Z,11.50
2018-12-14T08:52:12.955Z,11.30
2018-12-14T08:53:13.131Z,11.20
2018-12-14T08:54:12.358Z,10.90
2018-12-14T08:55:12.384Z,11.10
2018-12-14T08:56:12.593Z,11.60
2018-12-14T08:57:12.339Z,11.40
2018-12-14T08:58:12.750Z,10.90
2018-12-14T08:59:12.847Z,10.80
2018-12-14T09:00:12.882Z,11.10
2018-12-14T09:01:13.047Z,11.70
2018-12-14T09:02:13.239Z,10.90
2018-12-14T09:03:13.379Z,10.60
2018-12-14T09:04:14.977Z,9.70
2018-12-14T09:05:13.770Z,10.70
2018-12-14T09:06:13.920Z,9.20
2018-12-14T09:07:14.099Z,9.50
2018-12-14T09:08:14.287Z,9.60
2018-12-14T09:09:14.495Z,9.20
2018-12-14T09:10:14.729Z,9.40
2018-12-14T09:11:14.863Z,9.30
2018-12-14T09:12:15.018Z,10.20
2018-12-14T09:13:15.252Z,9.80
2018-12-14T09:14:15.342Z,9.60
2018-12-14T09:15:15.512Z,10.60
2018-12-14T09:16:15.668Z,10.30
2018-12-14T09:17:15.855Z,10.50
2018-12-14T09:18:16.017Z,10.70
2018-12-14T09:19:16.180Z,10.00
2018-12-14T09:20:20.250Z,9.60
2018-12-14T09:21:16.474Z,10.20
2018-12-14T09:22:16.642Z,10.60
2018-12-14T09:23:16.802Z,10.70
2018-12-14T09:24:16.997Z,10.30
2018-12-14T09:25:17.053Z,11.10
2018-12-14T09:26:17.216Z,10.70
2018-12-14T09:27:18.181Z,11.20
2018-12-14T09:28:17.577Z,11.10
2018-12-14T09:29:17.741Z,11.10
2018-12-14T09:30:17.900Z,11.20
2018-12-14T09:31:18.069Z,11.50
2018-12-14T09:32:18.244Z,11.10
2018-12-14T09:33:18.397Z,12.00
2018-12-14T09:34:18.687Z,12.10
2018-12-14T09:35:18.755Z,11.30
2018-12-14T09:36:18.918Z,12.20
2018-12-14T09:37:19.105Z,12.40
2018-12-14T09:38:19.264Z,12.00
2018-12-14T09:39:19.427Z,12.50
2018-12-14T09:40:19.686Z,11.80
2018-12-14T09:41:19.744Z,11.80
2018-12-14T09:42:19.914Z,12.70
2018-12-14T09:43:20.081Z,11.50
2018-12-14T09:44:20.250Z,11.50
2018-12-14T09:45:20.555Z,11.60
2018-12-14T09:46:20.592Z,12.00
2018-12-14T09:47:20.755Z,12.60
2018-12-14T09:48:20.917Z,13.50
2018-12-14T09:49:22.279Z,12.70
2018-12-14T09:50:21.233Z,13.30
2018-12-14T09:51:21.529Z,12.80
2018-12-14T09:52:21.506Z,12.00
2018-12-14T09:53:21.671Z,12.80
2018-12-14T09:54:21.835Z,12.00
2018-12-14T09:55:22.036Z,12.50
2018-12-14T09:56:22.348Z,12.30
2018-12-14T09:57:22.400Z,12.20
2018-12-14T09:58:22.744Z,12.40
2018-12-14T09:59:23.600Z,12.70
2018-12-14T10:00:22.952Z,12.50
2018-12-14T10:01:23.118Z,11.70
2018-12-14T10:02:23.282Z,12.90
2018-12-14T10:03:23.470Z,12.40
2018-12-14T10:04:23.652Z,12.70
2018-12-14T10:05:23.817Z,12.50
2018-12-14T10:06:23.987Z,12.30
2018-12-14T10:07:24.147Z,12.20
2018-12-14T10:08:24.308Z,12.70
2018-12-14T10:09:24.581Z,13.50
2018-12-14T10:10:24.631Z,12.50
2018-12-14T10:11:24.771Z,12.40
2018-12-14T10:12:24.938Z,12.80
2018-12-14T10:13:25.147Z,12.80
2018-12-14T10:14:25.820Z,12.40
2018-12-14T10:15:26.348Z,12.40
2018-12-14T10:16:25.631Z,13.00
2018-12-14T10:17:25.911Z,13.00
2018-12-14T10:18:25.995Z,12.90
2018-12-14T10:19:26.146Z,12.70
2018-12-14T10:20:26.320Z,13.00
2018-12-14T10:21:26.497Z,12.30
2018-12-14T10:22:26.645Z,12.20
2018-12-14T10:23:26.837Z,12.70
2018-12-14T10:24:26.980Z,12.10
2018-12-14T10:25:27.167Z,12.40
2018-12-14T10:26:27.331Z,13.00
2018-12-14T10:27:27.514Z,12.10
2018-12-14T10:28:27.751Z,12.00
2018-12-14T10:29:27.883Z,12.00
2018-12-14T10:30:28.075Z,12.80
2018-12-14T10:31:28.222Z,12.40
2018-12-14T10:32:28.382Z,12.00
2018-12-14T10:33:28.542Z,12.30
2018-12-14T10:34:28.730Z,12.30
2018-12-14T10:35:28.878Z,12.30
2018-12-14T10:36:29.041Z,12.50
2018-12-14T10:37:29.203Z,12.10
2018-12-14T10:38:29.361Z,12.00
2018-12-14T10:39:29.534Z,12.80
2018-12-14T10:40:29.950Z,12.00
2018-12-14T10:41:29.844Z,12.10
2018-12-14T10:42:30.016Z,11.50
2018-12-14T10:43:30.177Z,12.30
2018-12-14T10:44:30.337Z,12.50
2018-12-14T10:45:30.504Z,12.20
2018-12-14T10:46:30.673Z,12.30
2018-12-14T10:47:30.833Z,11.70
2018-12-14T10:48:31.423Z,11.50
2018-12-14T10:49:31.198Z,11.70
2018-12-14T10:50:38.559Z,12.00
2018-12-14T10:51:31.805Z,12.40
2018-12-14T10:52:32.007Z,12.00
2018-12-14T10:53:31.927Z,11.00
2018-12-14T10:54:32.149Z,11.50
2018-12-14T10:55:32.194Z,11.10
2018-12-14T10:56:32.268Z,11.70
2018-12-14T10:57:32.423Z,10.60
2018-12-14T10:58:32.777Z,10.90
2018-12-14T10:59:32.736Z,11.00
2018-12-14T11:00:32.934Z,10.90
2018-12-14T11:01:33.096Z,11.40
2018-12-14T11:02:33.563Z,11.20
2018-12-14T11:03:33.475Z,11.90
2018-12-14T11:04:33.458Z,12.10
2018-12-14T11:05:33.612Z,11.40
2018-12-14T11:06:33.779Z,11.90
2018-12-14T11:07:34.844Z,11.30
2018-12-14T11:08:34.129Z,10.40
2018-12-14T11:09:34.277Z,10.40
2018-12-14T11:10:34.450Z,10.50
2018-12-14T11:11:34.642Z,10.30
2018-12-14T11:12:34.808Z,10.80
2018-12-14T11:13:34.991Z,10.40
2018-12-14T11:14:35.278Z,10.20
2018-12-14T11:15:35.288Z,9.90
2018-12-14T11:16:35.448Z,9.70
2018-12-14T11:17:35.617Z,9.60
2018-12-14T11:18:35.788Z,9.70
2018-12-14T11:19:35.944Z,9.40
2018-12-14T11:20:36.127Z,9.30
2018-12-14T11:21:36.274Z,9.70
2018-12-14T11:22:36.453Z,10.30
2018-12-14T11:23:36.619Z,9.10
2018-12-14T11:24:36.815Z,8.60
2018-12-14T11:25:36.983Z,9.20
2018-12-14T11:26:37.208Z,9.50
2018-12-14T11:27:37.347Z,9.00
2018-12-14T11:28:37.540Z,8.80
2018-12-14T11:29:37.700Z,9.00
2018-12-14T11:30:38.217Z,8.90
2018-12-14T11:31:38.217Z,9.10
2018-12-14T11:32:38.259Z,9.20
2018-12-14T11:33:38.309Z,9.90
2018-12-14T11:34:38.501Z,9.40
2018-12-14T11:35:38.661Z,9.30
2018-12-14T11:36:38.822Z,9.20
2018-12-14T11:37:39.190Z,8.60
2018-12-14T11:38:39.127Z,8.60
2018-12-14T11:39:39.297Z,8.30
2018-12-14T11:40:39.469Z,8.60
2018-12-14T11:41:39.631Z,8.20
2018-12-14T11:42:39.788Z,8.10
2018-12-14T11:43:40.164Z,8.90
2018-12-14T11:44:40.354Z,8.10
2018-12-14T11:45:40.293Z,8.30
2018-12-14T11:46:40.634Z,8.30
2018-12-14T11:47:40.574Z,8.20
2018-12-14T11:48:40.945Z,7.50
2018-12-14T11:49:41.124Z,7.80
2018-12-14T11:50:41.256Z,7.20
2018-12-14T11:51:41.327Z,8.50
2018-12-14T11:52:41.656Z,7.60
2018-12-14T11:53:41.583Z,8.20
2018-12-14T11:54:41.778Z,7.50
2018-12-14T11:55:42.034Z,7.60
2018-12-14T11:56:42.124Z,7.20
2018-12-14T11:57:42.451Z,7.80
2018-12-14T11:58:42.888Z,7.20
2018-12-14T11:59:42.696Z,7.50
2018-12-14T12:00:42.832Z,7.80
2018-12-14T12:01:42.981Z,7.60
2018-12-14T12:02:43.512Z,7.60
2018-12-14T12:03:43.309Z,7.70
2018-12-14T12:04:43.472Z,7.80
2018-12-14T12:05:43.654Z,7.20
2018-12-14T12:06:43.808Z,7.30
2018-12-14T12:07:43.975Z,7.40
2018-12-14T12:08:44.128Z,7.20
2018-12-14T12:09:44.289Z,7.30
2018-12-14T12:10:44.452Z,7.50
2018-12-14T12:11:44.714Z,6.90
2018-12-14T12:12:44.754Z,6.60
2018-12-14T12:13:44.917Z,6.60
2018-12-14T12:14:46.594Z,7.10
2018-12-14T12:15:45.180Z,7.30
2018-12-14T12:16:45.340Z,7.50
2018-12-14T12:17:49.421Z,7.50
2018-12-14T12:18:45.692Z,7.60
2018-12-14T12:19:46.012Z,7.30
2018-12-14T12:20:46.232Z,6.50
2018-12-14T12:21:46.259Z,6.70
2018-12-14T12:22:46.429Z,6.60
2018-12-14T12:23:46.581Z,5.90
2018-12-14T12:24:47.284Z,6.80
2018-12-14T12:25:46.878Z,6.20
2018-12-14T12:26:47.063Z,6.20
2018-12-14T12:27:47.307Z,6.30
2018-12-14T12:28:47.371Z,5.70
2018-12-14T12:29:47.533Z,6.10
2018-12-14T12:30:47.704Z,6.20
2018-12-14T12:31:47.861Z,6.10
2018-12-14T12:32:48.241Z,6.20
2018-12-14T12:33:48.166Z,6.00
2018-12-14T12:34:48.311Z,5.60
2018-12-14T12:35:48.471Z,6.10
2018-12-14T12:36:49.350Z,6.00
2018-12-14T12:37:49.090Z,5.40
2018-12-14T12:38:49.086Z,5.70
2018-12-14T12:39:49.240Z,6.30
2018-12-14T12:40:49.618Z,5.70
2018-12-14T12:41:49.554Z,5.80
2018-12-14T12:42:49.697Z,5.40
2018-12-14T12:43:51.677Z,5.60
2018-12-14T12:44:50.005Z,6.10
2018-12-14T12:45:50.176Z,6.00
2018-12-14T12:46:50.335Z,5.30
2018-12-14T12:47:50.494Z,5.20
2018-12-14T12:48:50.666Z,5.80
2018-12-14T12:49:50.843Z,5.10
2018-12-14T12:50:50.999Z,5.20
2018-12-14T12:51:51.171Z,5.20
2018-12-14T12:52:51.374Z,4.80
2018-12-14T12:53:51.545Z,5.40
2018-12-14T12:54:51.704Z,5.30
2018-12-14T12:55:51.866Z,5.20
2018-12-14T12:56:52.018Z,5.30
2018-12-14T12:57:52.194Z,5.10
2018-12-14T12:58:52.382Z,5.50
2018-12-14T12:59:52.561Z,5.50
2018-12-14T13:00:52.735Z,5.30
2018-12-14T13:01:52.920Z,5.60
2018-12-14T13:02:53.012Z,5.50
2018-12-14T13:03:53.171Z,6.10
2018-12-14T13:04:53.332Z,6.10
2018-12-14T13:05:53.490Z,5.60